createdAt,value
2018-12-13T00:00:01.991Z,6.20
2018-12-13T00:02:31.347Z,7.90
2018-12-13T00:05:00.133Z,7.73
2018-12-13T00:07:28.954Z,7.20
2018-12-13T00:09:57.751Z,6.60
2018-12-13T00:12:26.541Z,8.70
2018-12-13T00:14:55.353Z,7.53
2018-12-13T00:17:24.138Z,6.73
2018-12-13T00:19:53.157Z,6.97
2018-12-13T00:22:21.948Z,7.33
2018-12-13T00:24:50.744Z,7.37
2018-12-13T00:27:19.813Z,7.60
2018-12-13T00:29:48.614Z,7.10
2018-12-13T00:32:17.429Z,7.00
2018-12-13T00:34:46.211Z,7.30
2018-12-13T00:37:15.415Z,7.87
2018-12-13T00:39:44.202Z,8.37
2018-12-13T00:42:12.995Z,10.17
2018-12-13T00:44:42.197Z,8.03
2018-12-13T00:47:11.380Z,7.77
2018-12-13T00:49:40.487Z,8.80
2018-12-13T00:52:09.273Z,9.93
2018-12-13T00:54:38.057Z,7.80
2018-12-13T00:57:06.861Z,6.90
2018-12-13T00:59:35.667Z,8.27
2018-12-13T01:02:04.871Z,8.13
2018-12-13T01:04:33.679Z,9.17
2018-12-13T01:07:02.487Z,8.10
2018-12-13T01:09:31.275Z,8.77
2018-12-13T01:12:00.154Z,7.13
2018-12-13T01:14:28.925Z,7.40
2018-12-13T01:16:58.049Z,7.50
2018-12-13T01:19:26.849Z,7.80
2018-12-13T01:21:55.645Z,8.43
2018-12-13T01:24:24.754Z,8.97
2018-12-13T01:26:53.535Z,8.07
2018-12-13T01:29:22.353Z,8.33
2018-12-13T01:31:51.150Z,9.47
2018-12-13T01:34:20.247Z,13.50
2018-12-13T01:36:52.393Z,10.73
2018-12-13T01:39:20.063Z,8.50
2018-12-13T01:41:49.118Z,8.40
2018-12-13T01:44:17.929Z,7.30
2018-12-13T01:46:47.378Z,10.13
2018-12-13T01:49:16.206Z,8.97
2018-12-13T01:51:45.015Z,8.27
2018-12-13T01:54:13.803Z,9.97
2018-12-13T01:56:43.003Z,8.40
2018-12-13T01:59:12.157Z,8.40
2018-12-13T02:01:41.358Z,11.07
2018-12-13T02:04:10.188Z,9.93
2018-12-13T02:06:38.989Z,11.67
2018-12-13T02:09:08.181Z,8.13
2018-12-13T02:11:37.214Z,10.47
2018-12-13T02:14:06.474Z,10.13
2018-12-13T02:16:35.285Z,9.03
2018-12-13T02:19:04.518Z,10.23
2018-12-13T02:21:33.767Z,10.03
2018-12-13T02:24:03.189Z,9.83
2018-12-13T02:26:32.009Z,8.43
2018-12-13T02:29:00.812Z,9.43
2018-12-13T02:31:30.012Z,11.60
2018-12-13T02:33:58.923Z,10.37
2018-12-13T02:36:27.934Z,10.97
2018-12-13T02:38:56.748Z,11.97
2018-12-13T02:41:25.952Z,12.00
2018-12-13T02:43:54.968Z,10.87
2018-12-13T02:46:24.244Z,10.93
2018-12-13T02:49:05.213Z,11.17
2018-12-13T02:51:34.291Z,11.83
2018-12-13T02:54:04.122Z,12.03
2018-12-13T02:56:32.999Z,10.90
2018-12-13T02:59:02.592Z,11.00
2018-12-13T03:01:31.801Z,12.30
2018-12-13T03:04:01.015Z,13.03
2018-12-13T03:06:30.701Z,11.57
2018-12-13T03:08:59.641Z,12.87
2018-12-13T03:11:28.426Z,12.37
2018-12-13T03:13:57.237Z,15.57
2018-12-13T03:16:26.771Z,12.20
2018-12-13T03:18:55.562Z,14.33
2018-12-13T03:21:24.425Z,12.53
2018-12-13T03:23:53.464Z,10.67
2018-12-13T03:26:22.256Z,14.47
2018-12-13T03:28:51.047Z,11.37
2018-12-13T03:31:19.838Z,12.17
2018-12-13T03:33:48.873Z,12.17
2018-12-13T03:36:18.082Z,12.87
2018-12-13T03:38:46.890Z,13.37
2018-12-13T03:41:15.675Z,12.17
2018-12-13T03:43:44.469Z,11.27
2018-12-13T03:46:13.489Z,10.83
2018-12-13T03:48:42.269Z,13.70
2018-12-13T03:51:11.065Z,12.40
2018-12-13T03:53:39.850Z,13.93
2018-12-13T03:56:08.646Z,14.07
2018-12-13T03:58:37.718Z,13.60
2018-12-13T04:01:06.731Z,12.20
2018-12-13T04:03:35.514Z,11.33
2018-12-13T04:06:04.643Z,11.13
2018-12-13T04:08:33.666Z,13.13
2018-12-13T04:11:02.475Z,16.53
2018-12-13T04:13:31.502Z,14.40
2018-12-13T04:16:00.296Z,10.83
2018-12-13T04:18:29.653Z,12.10
2018-12-13T04:20:58.444Z,13.33
2018-12-13T04:23:27.235Z,11.73
2018-12-13T04:25:56.046Z,10.97
2018-12-13T04:28:25.344Z,10.90
2018-12-13T04:30:54.150Z,12.97
2018-12-13T04:33:23.161Z,11.90
2018-12-13T04:35:51.929Z,10.93
2018-12-13T04:38:20.725Z,11.20
2018-12-13T04:40:49.505Z,12.50
2018-12-13T04:43:18.361Z,10.87
2018-12-13T04:45:47.158Z,12.57
2018-12-13T04:48:15.938Z,11.80
2018-12-13T04:50:44.739Z,14.57
2018-12-13T04:53:13.594Z,13.47
2018-12-13T04:55:42.369Z,11.27
2018-12-13T04:58:11.178Z,11.93
2018-12-13T05:00:39.969Z,11.87
2018-12-13T05:03:09.209Z,11.53
2018-12-13T05:05:37.998Z,12.70
2018-12-13T05:08:06.781Z,14.07
2018-12-13T05:10:55.729Z,13.43
2018-12-13T05:13:24.752Z,12.47
2018-12-13T05:15:53.549Z,12.83
2018-12-13T05:18:22.344Z,14.63
2018-12-13T05:20:51.144Z,13.87
2018-12-13T05:23:19.972Z,14.43
2018-12-13T05:25:48.779Z,13.97
2018-12-13T05:28:17.605Z,15.27
2018-12-13T05:30:46.401Z,15.43
2018-12-13T05:33:15.209Z,15.87
2018-12-13T05:35:44.050Z,13.90
2018-12-13T05:38:12.829Z,14.90
2018-12-13T05:40:41.657Z,13.97
2018-12-13T05:43:10.461Z,19.27
2018-12-13T05:45:39.274Z,14.03
2018-12-13T05:48:08.178Z,17.10
2018-12-13T05:50:36.980Z,16.33
2018-12-13T05:53:05.781Z,16.53
2018-12-13T05:55:34.603Z,16.80
2018-12-13T05:58:03.751Z,17.70
2018-12-13T06:00:33.173Z,16.87
2018-12-13T06:03:02.063Z,18.17
2018-12-13T06:05:31.145Z,16.27
2018-12-13T06:07:59.958Z,21.83
2018-12-13T06:10:28.765Z,21.23
2018-12-13T06:12:57.801Z,18.60
2018-12-13T06:15:27.102Z,17.17
2018-12-13T06:17:55.902Z,18.80
2018-12-13T06:20:24.701Z,21.50
2018-12-13T06:22:53.494Z,20.10
2018-12-13T06:25:22.320Z,20.70
2018-12-13T06:27:51.181Z,21.57
2018-12-13T06:30:19.963Z,17.03
2018-12-13T06:32:49.001Z,23.93
2018-12-13T06:35:17.781Z,21.23
2018-12-13T06:37:46.589Z,23.10
2018-12-13T06:40:15.875Z,21.57
2018-12-13T06:42:44.742Z,20.67
2018-12-13T06:45:13.992Z,19.63
2018-12-13T06:47:42.790Z,21.37
2018-12-13T06:50:11.995Z,19.90
2018-12-13T06:52:40.877Z,19.30
2018-12-13T06:55:10.098Z,19.83
2018-12-13T06:57:38.953Z,23.07
2018-12-13T07:00:09.165Z,17.87
2018-12-13T07:02:38.021Z,19.97
2018-12-13T07:05:07.510Z,21.40
2018-12-13T07:07:36.733Z,21.90
2018-12-13T07:10:06.013Z,21.10
2018-12-13T07:12:34.831Z,20.07
2018-12-13T07:15:04.017Z,22.60
2018-12-13T07:17:32.964Z,12.03
2018-12-13T07:20:01.779Z,22.07
2018-12-13T07:22:30.669Z,19.47
2018-12-13T07:24:59.879Z,21.67
2018-12-13T07:27:29.069Z,16.47
2018-12-13T07:29:57.884Z,18.67
2018-12-13T07:32:26.790Z,19.40
2018-12-13T07:35:01.286Z,20.87
2018-12-13T07:37:27.518Z,23.37
2018-12-13T07:39:56.361Z,19.50
2018-12-13T07:42:25.585Z,19.77
2018-12-13T07:44:54.422Z,21.33
2018-12-13T07:47:23.261Z,20.30
2018-12-13T07:49:52.186Z,22.17
2018-12-13T07:52:21.043Z,22.90
2018-12-13T07:54:49.878Z,21.37
2018-12-13T07:57:19.156Z,22.87
2018-12-13T07:59:48.015Z,21.43
2018-12-13T08:02:16.861Z,22.17
2018-12-13T08:04:46.066Z,19.53
2018-12-13T08:07:14.878Z,22.73
2018-12-13T08:09:43.686Z,22.70
2018-12-13T08:12:12.947Z,22.10
2018-12-13T08:14:41.784Z,24.00
2018-12-13T08:17:10.589Z,22.97
2018-12-13T08:19:39.406Z,22.20
2018-12-13T08:22:08.349Z,17.67
2018-12-13T08:24:37.141Z,17.97
2018-12-13T08:27:05.970Z,18.63
2018-12-13T08:29:34.797Z,22.57
2018-12-13T08:32:03.834Z,18.93
2018-12-13T08:34:32.888Z,23.37
2018-12-13T08:37:01.775Z,22.27
2018-12-13T08:39:30.979Z,22.23
2018-12-13T08:42:00.065Z,20.43
2018-12-13T08:44:29.131Z,20.33
2018-12-13T08:46:57.958Z,20.17
2018-12-13T08:49:26.806Z,24.23
2018-12-13T08:51:55.638Z,18.90
2018-12-13T08:54:24.480Z,19.63
2018-12-13T08:56:53.338Z,21.83
2018-12-13T08:59:22.210Z,17.53
2018-12-13T09:01:51.078Z,21.73
2018-12-13T09:04:19.901Z,21.07
2018-12-13T09:06:48.749Z,22.90
2018-12-13T09:09:17.545Z,19.30
2018-12-13T09:11:46.407Z,20.53
2018-12-13T09:14:15.301Z,22.73
2018-12-13T09:16:44.394Z,23.20
2018-12-13T09:19:13.237Z,18.80
2018-12-13T09:21:42.017Z,20.13
2018-12-13T09:24:12.667Z,20.00
2018-12-13T09:26:41.936Z,25.37
2018-12-13T09:29:10.917Z,21.43
2018-12-13T09:31:39.825Z,18.53
2018-12-13T09:34:09.094Z,21.93
2018-12-13T09:36:38.043Z,24.73
2018-12-13T09:39:07.905Z,21.53
2018-12-13T09:41:37.016Z,22.47
2018-12-13T09:44:07.885Z,22.30
2018-12-13T09:46:36.682Z,26.07
2018-12-13T09:49:06.377Z,23.10
2018-12-13T09:51:35.417Z,23.53
2018-12-13T09:54:04.194Z,23.43
2018-12-13T09:56:33.510Z,27.63
2018-12-13T09:59:02.377Z,24.60
2018-12-13T10:01:31.646Z,21.67
2018-12-13T10:04:00.542Z,23.17
2018-12-13T10:06:29.356Z,21.17
2018-12-13T10:08:58.485Z,25.87
2018-12-13T10:11:27.851Z,21.60
2018-12-13T10:13:56.654Z,21.23
2018-12-13T10:16:25.954Z,18.97
2018-12-13T10:18:55.238Z,21.60
2018-12-13T10:21:24.346Z,24.47
2018-12-13T10:23:53.716Z,38.47
2018-12-13T10:26:22.551Z,20.93
2018-12-13T10:28:51.408Z,20.27
2018-12-13T10:31:20.558Z,20.27
2018-12-13T10:33:49.362Z,20.67
2018-12-13T10:36:18.589Z,18.67
2018-12-13T10:38:52.777Z,20.37
2018-12-13T10:41:18.213Z,19.63
2018-12-13T10:43:47.036Z,19.80
2018-12-13T10:46:15.845Z,20.40
2018-12-13T10:48:44.974Z,22.27
2018-12-13T10:51:14.143Z,19.43
2018-12-13T10:53:43.010Z,17.17
2018-12-13T10:56:11.825Z,18.03
2018-12-13T10:58:40.648Z,17.33
2018-12-13T11:01:14.829Z,17.00
2018-12-13T11:03:43.657Z,13.67
2018-12-13T11:06:12.611Z,17.60
2018-12-13T11:08:41.652Z,19.00
2018-12-13T11:11:10.449Z,20.50
2018-12-13T11:13:39.272Z,15.17
2018-12-13T11:16:08.312Z,15.87
2018-12-13T11:18:37.099Z,14.07
2018-12-13T11:21:06.328Z,15.53
2018-12-13T11:23:35.394Z,17.07
2018-12-13T11:26:04.190Z,28.43
2018-12-13T11:28:44.172Z,27.40
2018-12-13T11:31:13.120Z,27.57
2018-12-13T11:33:41.945Z,20.07
2018-12-13T11:36:11.017Z,18.50
2018-12-13T11:38:39.829Z,17.27
2018-12-13T11:41:08.668Z,18.83
2018-12-13T11:43:37.639Z,15.60
2018-12-13T11:46:06.885Z,10.17
2018-12-13T11:48:35.959Z,14.77
2018-12-13T11:51:04.859Z,14.03
2018-12-13T11:53:34.085Z,16.53
2018-12-13T11:56:02.921Z,14.83
2018-12-13T11:58:31.740Z,15.40
2018-12-13T12:01:00.536Z,15.23
2018-12-13T12:03:29.418Z,14.17
2018-12-13T12:05:58.254Z,12.90
2018-12-13T12:08:27.076Z,17.17
2018-12-13T12:10:55.887Z,15.97
2018-12-13T12:13:24.904Z,10.17
2018-12-13T12:15:53.757Z,15.53
2018-12-13T12:18:22.569Z,15.83
2018-12-13T12:20:51.773Z,19.50
2018-12-13T12:23:20.608Z,16.60
2018-12-13T12:25:49.412Z,15.07
2018-12-13T12:28:18.344Z,17.03
2018-12-13T12:30:47.170Z,17.07
2018-12-13T12:33:15.957Z,19.70
2018-12-13T12:35:44.758Z,16.97
2018-12-13T12:38:13.876Z,14.93
2018-12-13T12:40:42.683Z,16.53
2018-12-13T12:43:11.491Z,17.23
2018-12-13T12:45:40.537Z,18.10
2018-12-13T12:48:09.585Z,16.77
2018-12-13T12:50:38.879Z,17.77
2018-12-13T12:53:07.662Z,18.17
2018-12-13T12:55:36.576Z,18.70
2018-12-13T12:58:06.223Z,18.83
2018-12-13T13:00:35.502Z,17.60
2018-12-13T13:03:05.489Z,12.23
2018-12-13T13:05:34.348Z,17.00
2018-12-13T13:08:03.495Z,14.97
2018-12-13T13:10:32.396Z,16.53
2018-12-13T13:13:02.957Z,17.83
2018-12-13T13:15:32.518Z,16.43
2018-12-13T13:18:01.365Z,14.57
2018-12-13T13:20:30.274Z,14.00
2018-12-13T13:22:59.515Z,11.17
2018-12-13T13:25:28.371Z,17.37
2018-12-13T13:27:57.220Z,14.70
2018-12-13T13:30:26.031Z,14.37
2018-12-13T13:32:54.849Z,15.10
2018-12-13T13:35:23.689Z,14.50
2018-12-13T13:37:52.521Z,15.97
2018-12-13T13:40:21.611Z,15.37
2018-12-13T13:42:50.806Z,17.27
2018-12-13T13:45:20.216Z,17.90
2018-12-13T13:47:49.243Z,16.20
2018-12-13T13:50:18.054Z,20.60
2018-12-13T13:52:46.843Z,15.90
2018-12-13T13:55:15.683Z,17.80
2018-12-13T13:57:44.853Z,18.63
2018-12-13T14:00:14.045Z,21.33
2018-12-13T14:02:42.849Z,20.87
2018-12-13T14:05:12.065Z,19.23
2018-12-13T14:07:41.081Z,20.67
2018-12-13T14:10:10.538Z,19.37
2018-12-13T14:12:39.401Z,21.67
2018-12-13T14:15:08.604Z,20.13
2018-12-13T14:17:37.439Z,18.00
2018-12-13T14:20:07.125Z,18.30
2018-12-13T14:22:35.973Z,22.57
2018-12-13T14:25:05.436Z,18.77
2018-12-13T14:27:34.645Z,16.67
2018-12-13T14:30:04.817Z,19.97
2018-12-13T14:32:33.647Z,17.90
2018-12-13T14:35:02.459Z,18.57
2018-12-13T14:37:31.772Z,17.83
2018-12-13T14:40:00.580Z,18.27
2018-12-13T14:42:29.408Z,19.43
2018-12-13T14:44:58.481Z,19.13
2018-12-13T14:47:27.300Z,18.97
2018-12-13T14:49:56.127Z,19.40
2018-12-13T14:52:24.944Z,19.27
2018-12-13T14:54:54.392Z,24.50
2018-12-13T14:57:23.829Z,33.83
2018-12-13T15:03:16.762Z,19.80
2018-12-13T15:05:45.620Z,18.87
2018-12-13T15:08:14.536Z,20.93
2018-12-13T15:10:43.448Z,21.70
2018-12-13T15:13:12.333Z,22.27
2018-12-13T15:15:41.229Z,21.20
2018-12-13T15:18:10.088Z,17.20
2018-12-13T15:20:39.337Z,19.37
2018-12-13T15:23:08.245Z,20.13
2018-12-13T15:25:37.096Z,20.27
2018-12-13T15:28:06.698Z,20.50
2018-12-13T15:30:35.810Z,23.07
2018-12-13T15:33:05.339Z,21.47
2018-12-13T15:35:34.415Z,19.37
2018-12-13T15:38:03.312Z,21.17
2018-12-13T15:40:32.224Z,19.20
2018-12-13T15:43:01.109Z,20.07
2018-12-13T15:45:30.497Z,20.70
2018-12-13T15:47:59.484Z,23.23
2018-12-13T15:50:28.372Z,21.00
2018-12-13T15:52:57.312Z,21.03
2018-12-13T15:55:26.187Z,21.27
2018-12-13T15:57:55.010Z,19.70
2018-12-13T16:00:24.363Z,22.57
2018-12-13T16:02:53.247Z,20.37
2018-12-13T16:05:22.094Z,21.27
2018-12-13T16:07:51.221Z,27.13
2018-12-13T16:10:20.050Z,25.10
2018-12-13T16:12:48.949Z,26.67
2018-12-13T16:15:17.853Z,20.77
2018-12-13T16:17:47.086Z,21.43
2018-12-13T16:20:16.417Z,23.17
2018-12-13T16:22:45.263Z,25.60
2018-12-13T16:25:14.149Z,23.43
2018-12-13T16:27:43.046Z,22.90
2018-12-13T16:30:12.302Z,20.87
2018-12-13T16:32:41.267Z,21.30
2018-12-13T16:35:10.564Z,23.23
2018-12-13T16:37:39.491Z,23.73
2018-12-13T16:40:10.496Z,20.40
2018-12-13T16:42:39.626Z,21.23
2018-12-13T16:45:08.893Z,25.57
2018-12-13T16:47:38.429Z,21.57
2018-12-13T16:50:08.058Z,23.20
2018-12-13T16:52:36.891Z,23.63
2018-12-13T16:55:06.703Z,23.03
2018-12-13T16:57:35.801Z,23.00
2018-12-13T17:00:05.709Z,23.93
2018-12-13T17:02:34.645Z,24.13
2018-12-13T17:05:05.254Z,23.83
2018-12-13T17:07:36.879Z,27.63
2018-12-13T17:10:07.217Z,24.63
2018-12-13T17:12:36.146Z,29.43
2018-12-13T17:15:06.151Z,27.43
2018-12-13T17:17:35.071Z,29.30
2018-12-13T17:20:04.490Z,24.23
2018-12-13T17:22:33.387Z,25.43
2018-12-13T17:25:02.303Z,24.83
2018-12-13T17:27:31.147Z,28.07
2018-12-13T17:30:00.094Z,28.43
2018-12-13T17:32:29.209Z,38.93
2018-12-13T17:34:58.078Z,54.77
2018-12-13T17:37:26.936Z,25.80
2018-12-13T17:39:55.804Z,27.93
2018-12-13T17:42:24.678Z,28.40
2018-12-13T17:44:53.515Z,28.50
2018-12-13T17:47:22.376Z,27.63
2018-12-13T17:49:51.220Z,30.97
2018-12-13T17:52:20.519Z,27.63
2018-12-13T17:54:50.059Z,26.60
2018-12-13T17:57:18.920Z,30.60
2018-12-13T17:59:47.793Z,27.33
2018-12-13T18:02:16.663Z,27.73
2018-12-13T18:04:45.931Z,27.97
2018-12-13T18:07:14.799Z,27.30
2018-12-13T18:09:43.667Z,24.70
2018-12-13T18:12:12.948Z,25.27
2018-12-13T18:14:41.892Z,30.60
2018-12-13T18:17:11.003Z,29.03
2018-12-13T18:19:40.576Z,26.20
2018-12-13T18:22:09.481Z,30.40
2018-12-13T18:24:38.389Z,26.57
2018-12-13T18:27:07.310Z,24.47
2018-12-13T18:29:36.363Z,26.40
2018-12-13T18:32:05.447Z,26.23
2018-12-13T18:34:34.349Z,23.67
2018-12-13T18:37:03.551Z,25.47
2018-12-13T18:39:32.414Z,26.40
2018-12-13T18:42:01.422Z,26.13
2018-12-13T18:44:30.668Z,26.30
2018-12-13T18:46:59.556Z,30.17
2018-12-13T18:49:28.454Z,29.13
2018-12-13T18:51:57.332Z,28.10
2018-12-13T18:54:26.291Z,24.20
2018-12-13T18:56:56.087Z,29.43
2018-12-13T18:59:25.094Z,25.93
2018-12-13T19:01:54.745Z,29.40
2018-12-13T19:04:23.917Z,26.13
2018-12-13T19:06:52.813Z,30.20
2018-12-13T19:09:21.831Z,39.73
2018-12-13T19:11:50.804Z,68.10
2018-12-13T19:14:19.703Z,38.90
2018-12-13T19:16:48.681Z,44.97
2018-12-13T19:19:17.763Z,42.53
2018-12-13T19:21:46.617Z,30.33
2018-12-13T19:24:15.569Z,30.17
2018-12-13T19:26:44.739Z,28.20
2018-12-13T19:29:13.614Z,31.00
2018-12-13T19:31:42.584Z,28.73
2018-12-13T19:34:11.589Z,28.13
2018-12-13T19:36:40.548Z,28.83
2018-12-13T19:39:09.937Z,31.43
2018-12-13T19:41:38.816Z,28.37
2018-12-13T19:44:07.915Z,43.87
2018-12-13T19:46:36.854Z,24.27
2018-12-13T19:49:05.802Z,28.50
2018-12-13T19:51:34.841Z,27.53
2018-12-13T19:54:04.100Z,27.20
2018-12-13T19:56:32.966Z,29.23
2018-12-13T19:59:01.922Z,28.37
2018-12-13T20:01:31.977Z,29.37
2018-12-13T20:04:00.961Z,26.53
2018-12-13T20:06:29.968Z,27.87
2018-12-13T20:08:58.954Z,26.83
2018-12-13T20:11:27.852Z,27.83
2018-12-13T20:13:56.803Z,26.43
2018-12-13T20:16:26.099Z,26.23
2018-12-13T20:18:54.960Z,27.50
2018-12-13T20:21:23.871Z,24.07
2018-12-13T20:23:52.715Z,25.93
2018-12-13T20:26:21.670Z,25.30
2018-12-13T20:28:50.586Z,23.63
2018-12-13T20:31:19.482Z,26.57
2018-12-13T20:33:48.793Z,25.23
2018-12-13T20:36:17.672Z,24.60
2018-12-13T20:38:46.636Z,25.57
2018-12-13T20:41:15.531Z,24.40
2018-12-13T20:43:44.446Z,25.57
2018-12-13T20:46:13.318Z,27.77
2018-12-13T20:48:42.172Z,29.20
2018-12-13T20:51:11.092Z,31.97
2018-12-13T20:53:40.021Z,32.03
2018-12-13T20:56:08.929Z,34.33
2018-12-13T20:58:38.572Z,32.57
2018-12-13T21:01:07.535Z,27.93
2018-12-13T21:03:36.945Z,31.23
2018-12-13T21:06:05.998Z,29.77
2018-12-13T21:08:34.954Z,23.63
2018-12-13T21:11:07.474Z,25.77
2018-12-13T21:13:35.022Z,29.13
2018-12-13T21:16:04.354Z,25.87
2018-12-13T21:18:33.189Z,25.27
2018-12-13T21:21:02.143Z,29.77
2018-12-13T21:23:31.576Z,26.83
2018-12-13T21:26:00.487Z,33.70
2018-12-13T21:28:29.443Z,30.33
2018-12-13T21:30:58.348Z,26.37
2018-12-13T21:33:27.238Z,26.23
2018-12-13T21:35:56.151Z,26.20
2018-12-13T21:38:25.047Z,26.70
2018-12-13T21:40:54.639Z,23.07
2018-12-13T21:43:23.480Z,24.17
2018-12-13T21:45:52.350Z,21.83
2018-12-13T21:48:21.280Z,22.37
2018-12-13T21:50:50.435Z,22.37
2018-12-13T21:53:19.764Z,24.43
2018-12-13T21:55:48.686Z,23.23
2018-12-13T21:58:17.555Z,23.00
2018-12-13T22:00:46.451Z,25.33
2018-12-13T22:03:15.314Z,23.10
2018-12-13T22:05:44.207Z,23.20
2018-12-13T22:08:13.088Z,23.73
2018-12-13T22:10:41.973Z,32.97
2018-12-13T22:13:10.890Z,25.87
2018-12-13T22:15:39.758Z,29.23
2018-12-13T22:18:08.667Z,30.50
2018-12-13T22:20:37.559Z,31.90
2018-12-13T22:23:06.796Z,25.50
2018-12-13T22:25:35.955Z,25.20
2018-12-13T22:28:05.287Z,21.93
2018-12-13T22:30:34.589Z,24.10
2018-12-13T22:33:03.888Z,23.80
2018-12-13T22:35:32.763Z,22.97
2018-12-13T22:38:01.946Z,23.50
2018-12-13T22:40:31.206Z,11.43
2018-12-13T22:43:00.290Z,23.80
2018-12-13T22:45:29.148Z,20.17
2018-12-13T22:47:58.047Z,18.57
2018-12-13T22:50:26.987Z,23.37
2018-12-13T22:52:55.886Z,21.53
2018-12-13T22:55:24.783Z,21.57
2018-12-13T22:57:53.682Z,20.87
2018-12-13T23:00:23.035Z,22.17
2018-12-13T23:02:51.902Z,21.87
2018-12-13T23:05:21.192Z,21.60
2018-12-13T23:07:50.175Z,20.67
2018-12-13T23:10:19.052Z,20.73
2018-12-13T23:12:48.045Z,22.20
2018-12-13T23:15:16.914Z,20.37
2018-12-13T23:17:46.210Z,21.80
2018-12-13T23:20:15.136Z,21.53
2018-12-13T23:22:44.128Z,20.43
2018-12-13T23:25:13.016Z,20.80
2018-12-13T23:27:41.923Z,17.97
2018-12-13T23:30:11.528Z,21.60
2018-12-13T23:32:40.618Z,20.90
2018-12-13T23:35:09.554Z,21.03
2018-12-13T23:37:38.548Z,20.27
2018-12-13T23:40:07.847Z,21.77
2018-12-13T23:42:36.707Z,23.20
2018-12-13T23:45:06.239Z,20.67
2018-12-13T23:47:35.407Z,20.67
2018-12-13T23:50:05.053Z,22.73
2018-12-13T23:52:34.095Z,22.03
2018-12-13T23:55:03.907Z,22.20
2018-12-13T23:57:32.779Z,21.20
